BJACK01 KDCA-KDCA
Flight info
| Callsign | BJACK01 |
|---|---|
| Flight time | N/A |
| Altitude | 1300 |
| Route | VFR |
| Aircraft | AS65/L-V/N |
Departure
| Time | 2026-05-07 00:05 |
|---|---|
| Airport | Ronald Reagan Washington National Airport (KDCA) |
Arrival
| Time | N/A |
|---|---|
| Airport | Ronald Reagan Washington National Airport (KDCA) |
| Time | Latitude | Longitude | Altitude | Speed | Heading |
|---|---|---|---|---|---|
| 2026-05-06 23:54 | 38.84620 | -77.04572 | 20 ft | 0 kts | 143° |
| 2026-05-07 00:04 | 38.84619 | -77.04557 | 36 ft | 6 kts | 143° |
| 2026-05-07 00:04 | 38.84591 | -77.04505 | 100 ft | 5 kts | 209° |
| 2026-05-07 00:05 | 38.84517 | -77.04543 | 242 ft | 24 kts | 211° |
| 2026-05-07 00:05 | 38.84327 | -77.04779 | 406 ft | 53 kts | 234° |
| 2026-05-07 00:05 | 38.84287 | -77.05374 | 563 ft | 83 kts | 279° |
| 2026-05-07 00:05 | 38.84508 | -77.06169 | 795 ft | 105 kts | 283° |
| 2026-05-07 00:06 | 38.84610 | -77.07160 | 948 ft | 120 kts | 266° |
| 2026-05-07 00:06 | 38.84386 | -77.08211 | 1044 ft | 119 kts | 246° |
| 2026-05-07 00:06 | 38.84044 | -77.09081 | 1060 ft | 106 kts | 242° |
| 2026-05-07 00:06 | 38.83694 | -77.09958 | 1074 ft | 111 kts | 242° |
| 2026-05-07 00:07 | 38.83329 | -77.10821 | 1084 ft | 109 kts | 242° |
| 2026-05-07 00:07 | 38.82923 | -77.11638 | 1084 ft | 109 kts | 237° |
| 2026-05-07 00:07 | 38.82485 | -77.12407 | 1083 ft | 108 kts | 235° |
| 2026-05-07 00:07 | 38.82060 | -77.13199 | 1085 ft | 109 kts | 238° |
| 2026-05-07 00:08 | 38.81652 | -77.13986 | 1080 ft | 109 kts | 237° |
| 2026-05-07 00:08 | 38.81232 | -77.14806 | 1091 ft | 109 kts | 238° |
| 2026-05-07 00:08 | 38.80795 | -77.15605 | 1054 ft | 108 kts | 235° |
| 2026-05-07 00:08 | 38.80301 | -77.16327 | 1050 ft | 107 kts | 228° |
| 2026-05-07 00:09 | 38.79872 | -77.17108 | 1053 ft | 110 kts | 244° |
| 2026-05-07 00:09 | 38.79699 | -77.18074 | 1053 ft | 113 kts | 265° |
| 2026-05-07 00:09 | 38.79777 | -77.19080 | 1049 ft | 115 kts | 279° |
| 2026-05-07 00:09 | 38.80006 | -77.20065 | 1051 ft | 117 kts | 288° |
| 2026-05-07 00:10 | 38.80428 | -77.20948 | 1052 ft | 121 kts | 309° |
| 2026-05-07 00:10 | 38.81117 | -77.21591 | 1053 ft | 125 kts | 328° |
| 2026-05-07 00:10 | 38.81952 | -77.21944 | 1050 ft | 132 kts | 349° |
| 2026-05-07 00:10 | 38.82896 | -77.21855 | 1050 ft | 138 kts | 5° |
| 2026-05-07 00:11 | 38.83822 | -77.21710 | 1057 ft | 133 kts | 1° |
| 2026-05-07 00:11 | 38.84752 | -77.21716 | 1048 ft | 135 kts | 354° |
| 2026-05-07 00:11 | 38.85675 | -77.21781 | 1086 ft | 133 kts | 351° |
| 2026-05-07 00:11 | 38.86595 | -77.21899 | 1083 ft | 134 kts | 348° |
| 2026-05-07 00:12 | 38.87521 | -77.22016 | 1084 ft | 135 kts | 352° |
| 2026-05-07 00:12 | 38.88410 | -77.21980 | 1094 ft | 127 kts | 6° |
| 2026-05-07 00:12 | 38.89265 | -77.21664 | 1090 ft | 128 kts | 14° |
| 2026-05-07 00:12 | 38.90135 | -77.21546 | 1088 ft | 125 kts | 352° |
| 2026-05-07 00:13 | 38.91004 | -77.21653 | 1093 ft | 125 kts | 353° |
| 2026-05-07 00:13 | 38.91871 | -77.21687 | 1082 ft | 126 kts | 359° |
| 2026-05-07 00:13 | 38.92729 | -77.21399 | 1090 ft | 128 kts | 23° |
| 2026-05-07 00:13 | 38.93510 | -77.20833 | 1089 ft | 128 kts | 29° |
| 2026-05-07 00:14 | 38.94297 | -77.20279 | 1094 ft | 128 kts | 25° |
| 2026-05-07 00:14 | 38.95081 | -77.19682 | 1093 ft | 131 kts | 30° |
| 2026-05-07 00:14 | 38.95837 | -77.19036 | 1086 ft | 132 kts | 37° |
| 2026-05-07 00:14 | 38.96565 | -77.18381 | 1093 ft | 129 kts | 28° |
| 2026-05-07 00:15 | 38.97369 | -77.17853 | 1092 ft | 131 kts | 25° |
| 2026-05-07 00:15 | 38.98050 | -77.17061 | 1096 ft | 133 kts | 51° |
| 2026-05-07 00:15 | 38.98702 | -77.16211 | 1090 ft | 133 kts | 30° |
| 2026-05-07 00:15 | 38.99514 | -77.15711 | 1090 ft | 130 kts | 22° |
| 2026-05-07 00:16 | 39.00357 | -77.15284 | 1107 ft | 131 kts | 16° |
| 2026-05-07 00:16 | 39.01097 | -77.14660 | 1098 ft | 133 kts | 56° |
| 2026-05-07 00:16 | 39.01313 | -77.13509 | 1112 ft | 131 kts | 89° |
| 2026-05-07 00:16 | 39.01425 | -77.12343 | 1099 ft | 135 kts | 79° |
| 2026-05-07 00:17 | 39.01662 | -77.11193 | 1096 ft | 136 kts | 71° |
| 2026-05-07 00:17 | 39.01685 | -77.10015 | 1102 ft | 129 kts | 117° |
| 2026-05-07 00:17 | 39.01151 | -77.09142 | 1095 ft | 127 kts | 138° |
| 2026-05-07 00:17 | 39.00669 | -77.08179 | 1086 ft | 136 kts | 110° |
| 2026-05-07 00:18 | 39.00794 | -77.07015 | 1104 ft | 132 kts | 59° |
| 2026-05-07 00:18 | 39.01223 | -77.06011 | 1092 ft | 130 kts | 71° |
| 2026-05-07 00:18 | 39.01334 | -77.04819 | 1103 ft | 136 kts | 94° |
| 2026-05-07 00:18 | 39.01390 | -77.03632 | 1092 ft | 133 kts | 77° |
| 2026-05-07 00:19 | 39.01546 | -77.02457 | 1102 ft | 133 kts | 85° |
| 2026-05-07 00:19 | 39.01602 | -77.01278 | 1104 ft | 131 kts | 91° |
| 2026-05-07 00:19 | 39.01646 | -77.00109 | 1099 ft | 130 kts | 86° |
| 2026-05-07 00:19 | 39.01776 | -76.98945 | 1098 ft | 134 kts | 81° |
| 2026-05-07 00:20 | 39.01873 | -76.97760 | 1101 ft | 134 kts | 92° |
| 2026-05-07 00:20 | 39.01831 | -76.96542 | 1101 ft | 135 kts | 94° |
| 2026-05-07 00:20 | 39.01912 | -76.95342 | 1092 ft | 134 kts | 82° |
| 2026-05-07 00:20 | 39.01992 | -76.94154 | 1099 ft | 132 kts | 96° |
| 2026-05-07 00:21 | 39.01889 | -76.92959 | 1100 ft | 136 kts | 102° |
| 2026-05-07 00:21 | 39.01694 | -76.91765 | 1095 ft | 138 kts | 111° |
| 2026-05-07 00:21 | 39.01301 | -76.90659 | 1100 ft | 134 kts | 133° |
| 2026-05-07 00:21 | 39.00655 | -76.89848 | 1100 ft | 128 kts | 150° |
| 2026-05-07 00:22 | 38.99922 | -76.89189 | 1100 ft | 127 kts | 151° |
| 2026-05-07 00:22 | 38.99185 | -76.88580 | 1093 ft | 126 kts | 154° |
| 2026-05-07 00:22 | 38.98435 | -76.87954 | 1098 ft | 132 kts | 150° |
| 2026-05-07 00:22 | 38.97696 | -76.87320 | 1111 ft | 125 kts | 161° |
| 2026-05-07 00:23 | 38.96888 | -76.86873 | 1110 ft | 128 kts | 168° |
| 2026-05-07 00:23 | 38.96047 | -76.86552 | 1106 ft | 123 kts | 178° |
| 2026-05-07 00:23 | 38.95262 | -76.86596 | 1077 ft | 111 kts | 211° |
| 2026-05-07 00:23 | 38.94691 | -76.87302 | 1083 ft | 120 kts | 234° |
| 2026-05-07 00:24 | 38.94145 | -76.88105 | 1098 ft | 120 kts | 233° |
| 2026-05-07 00:24 | 38.93529 | -76.88810 | 1097 ft | 119 kts | 211° |
| 2026-05-07 00:24 | 38.92684 | -76.88995 | 1102 ft | 127 kts | 184° |
| 2026-05-07 00:24 | 38.91824 | -76.88945 | 1091 ft | 127 kts | 179° |
| 2026-05-07 00:25 | 38.90950 | -76.88733 | 1094 ft | 127 kts | 176° |
| 2026-05-07 00:25 | 38.90076 | -76.88590 | 1102 ft | 125 kts | 184° |
| 2026-05-07 00:25 | 38.89224 | -76.88502 | 1100 ft | 122 kts | 185° |
| 2026-05-07 00:25 | 38.88373 | -76.88435 | 1100 ft | 122 kts | 184° |
| 2026-05-07 00:26 | 38.87524 | -76.88433 | 1101 ft | 122 kts | 190° |
| 2026-05-07 00:26 | 38.86676 | -76.88506 | 1094 ft | 123 kts | 193° |
| 2026-05-07 00:26 | 38.85832 | -76.88580 | 1090 ft | 121 kts | 193° |
| 2026-05-07 00:26 | 38.84993 | -76.88678 | 1092 ft | 120 kts | 194° |
| 2026-05-07 00:27 | 38.84153 | -76.88785 | 1061 ft | 121 kts | 188° |
| 2026-05-07 00:27 | 38.83311 | -76.88806 | 1025 ft | 117 kts | 186° |
| 2026-05-07 00:27 | 38.82528 | -76.88867 | 996 ft | 112 kts | 201° |
| 2026-05-07 00:27 | 38.81979 | -76.89529 | 1001 ft | 113 kts | 248° |
| 2026-05-07 00:28 | 38.81882 | -76.90517 | 956 ft | 112 kts | 274° |
| 2026-05-07 00:28 | 38.82053 | -76.91524 | 851 ft | 122 kts | 279° |
| 2026-05-07 00:28 | 38.82059 | -76.92597 | 834 ft | 117 kts | 263° |
| 2026-05-07 00:28 | 38.81914 | -76.93614 | 810 ft | 116 kts | 261° |
| 2026-05-07 00:29 | 38.81754 | -76.94618 | 801 ft | 115 kts | 256° |
| 2026-05-07 00:29 | 38.81501 | -76.95609 | 790 ft | 120 kts | 250° |
| 2026-05-07 00:30 | 38.79928 | -76.98020 | 657 ft | 116 kts | 221° |
| 2026-05-07 00:30 | 38.79265 | -76.98605 | 649 ft | 115 kts | 214° |
| 2026-05-07 00:30 | 38.78552 | -76.99087 | 645 ft | 116 kts | 209° |
| 2026-05-07 00:30 | 38.77820 | -76.99525 | 642 ft | 115 kts | 208° |
| 2026-05-07 00:31 | 38.77069 | -76.99888 | 640 ft | 116 kts | 201° |
| 2026-05-07 00:31 | 38.76288 | -77.00208 | 640 ft | 119 kts | 200° |
| 2026-05-07 00:31 | 38.75567 | -77.00655 | 635 ft | 119 kts | 225° |
| 2026-05-07 00:31 | 38.75198 | -77.01584 | 638 ft | 118 kts | 260° |
| 2026-05-07 00:32 | 38.75082 | -77.02621 | 638 ft | 118 kts | 263° |
| 2026-05-07 00:32 | 38.74985 | -77.03671 | 639 ft | 119 kts | 264° |
| 2026-05-07 00:32 | 38.74884 | -77.04714 | 640 ft | 119 kts | 262° |
| 2026-05-07 00:32 | 38.74778 | -77.05753 | 855 ft | 115 kts | 264° |
| 2026-05-07 00:33 | 38.74772 | -77.06763 | 1035 ft | 114 kts | 272° |
| 2026-05-07 00:33 | 38.75089 | -77.07687 | 1126 ft | 119 kts | 310° |
| 2026-05-07 00:33 | 38.75866 | -77.08113 | 1169 ft | 128 kts | 350° |
| 2026-05-07 00:33 | 38.76786 | -77.08050 | 1220 ft | 136 kts | 3° |
| 2026-05-07 00:34 | 38.77682 | -77.07707 | 1232 ft | 136 kts | 27° |
| 2026-05-07 00:34 | 38.78489 | -77.07064 | 1225 ft | 138 kts | 21° |
| 2026-05-07 00:34 | 38.79391 | -77.07020 | 1239 ft | 129 kts | 338° |
| 2026-05-07 00:34 | 38.80045 | -77.07709 | 1241 ft | 116 kts | 295° |
| 2026-05-07 00:35 | 38.80295 | -77.08657 | 1237 ft | 111 kts | 274° |
| 2026-05-07 00:35 | 38.80342 | -77.09624 | 1235 ft | 112 kts | 269° |
| 2026-05-07 00:35 | 38.80304 | -77.10614 | 1241 ft | 108 kts | 261° |
| 2026-05-07 00:35 | 38.80161 | -77.11559 | 1229 ft | 111 kts | 256° |
| 2026-05-07 00:36 | 38.79933 | -77.12496 | 1241 ft | 109 kts | 249° |
| 2026-05-07 00:36 | 38.79643 | -77.13404 | 1208 ft | 108 kts | 250° |
| 2026-05-07 00:36 | 38.79429 | -77.14315 | 1201 ft | 107 kts | 258° |
| 2026-05-07 00:36 | 38.79384 | -77.15271 | 1201 ft | 113 kts | 279° |
| 2026-05-07 00:37 | 38.79957 | -77.15988 | 1204 ft | 131 kts | 341° |
| 2026-05-07 00:37 | 38.80798 | -77.15598 | 1202 ft | 138 kts | 45° |
| 2026-05-07 00:37 | 38.81309 | -77.14563 | 1240 ft | 138 kts | 68° |
| 2026-05-07 00:37 | 38.81645 | -77.13404 | 1236 ft | 141 kts | 70° |
| 2026-05-07 00:38 | 38.82072 | -77.12289 | 1164 ft | 140 kts | 59° |
| 2026-05-07 00:38 | 38.82656 | -77.11313 | 1053 ft | 135 kts | 53° |
| 2026-05-07 00:38 | 38.83164 | -77.10336 | 891 ft | 133 kts | 63° |
| 2026-05-07 00:38 | 38.83583 | -77.09286 | 808 ft | 134 kts | 68° |
| 2026-05-07 00:39 | 38.84059 | -77.08254 | 781 ft | 134 kts | 51° |
| 2026-05-07 00:39 | 38.84770 | -77.07531 | 681 ft | 128 kts | 28° |
| 2026-05-07 00:39 | 38.85599 | -77.07151 | 555 ft | 126 kts | 19° |
| 2026-05-07 00:39 | 38.86426 | -77.06784 | 427 ft | 126 kts | 28° |
| 2026-05-07 00:40 | 38.87108 | -77.06087 | 302 ft | 127 kts | 47° |
| 2026-05-07 00:40 | 38.87841 | -77.05480 | 181 ft | 126 kts | 21° |
| 2026-05-07 00:40 | 38.88711 | -77.05429 | 181 ft | 128 kts | 340° |
| 2026-05-07 00:40 | 38.89499 | -77.05901 | 198 ft | 125 kts | 345° |
| 2026-05-07 00:41 | 38.90254 | -77.06401 | 221 ft | 126 kts | 305° |
| 2026-05-07 00:41 | 38.90451 | -77.07446 | 296 ft | 119 kts | 272° |
| 2026-05-07 00:41 | 38.90549 | -77.08489 | 389 ft | 121 kts | 289° |
| 2026-05-07 00:41 | 38.90988 | -77.09392 | 420 ft | 121 kts | 313° |
| 2026-05-07 00:42 | 38.91645 | -77.10103 | 437 ft | 123 kts | 324° |
| 2026-05-07 00:42 | 38.92349 | -77.10692 | 448 ft | 123 kts | 334° |
| 2026-05-07 00:42 | 38.93119 | -77.11183 | 451 ft | 124 kts | 331° |
| 2026-05-07 00:42 | 38.93859 | -77.11772 | 478 ft | 125 kts | 326° |
| 2026-05-07 00:43 | 38.94537 | -77.12406 | 516 ft | 114 kts | 322° |
| 2026-05-07 00:43 | 38.95138 | -77.12914 | 545 ft | 95 kts | 338° |
| 2026-05-07 00:43 | 38.95734 | -77.13204 | 541 ft | 97 kts | 334° |
| 2026-05-07 00:43 | 38.96259 | -77.13720 | 584 ft | 92 kts | 315° |
| 2026-05-07 00:44 | 38.96666 | -77.14350 | 596 ft | 95 kts | 306° |
| 2026-05-07 00:44 | 38.96950 | -77.15089 | 630 ft | 88 kts | 286° |
| 2026-05-07 00:44 | 38.97080 | -77.15831 | 661 ft | 80 kts | 284° |
| 2026-05-07 00:44 | 38.97180 | -77.16453 | 732 ft | 68 kts | 281° |
| 2026-05-07 00:45 | 38.97207 | -77.17103 | 863 ft | 89 kts | 263° |
| 2026-05-07 00:45 | 38.96880 | -77.17788 | 970 ft | 89 kts | 229° |
| 2026-05-07 00:45 | 38.96463 | -77.18364 | 993 ft | 87 kts | 240° |
| 2026-05-07 00:45 | 38.96088 | -77.18969 | 995 ft | 88 kts | 231° |
| 2026-05-07 00:46 | 38.95521 | -77.19462 | 998 ft | 103 kts | 219° |
| 2026-05-07 00:46 | 38.94908 | -77.19900 | 990 ft | 107 kts | 213° |
| 2026-05-07 00:46 | 38.94213 | -77.20319 | 978 ft | 108 kts | 213° |
| 2026-05-07 00:46 | 38.93612 | -77.20722 | 976 ft | 83 kts | 223° |
| 2026-05-07 00:47 | 38.93189 | -77.21089 | 1090 ft | 65 kts | 225° |
| 2026-05-07 00:47 | 38.92808 | -77.21371 | 1210 ft | 65 kts | 208° |
| 2026-05-07 00:47 | 38.92262 | -77.21529 | 1249 ft | 98 kts | 199° |
| 2026-05-07 00:47 | 38.91560 | -77.21682 | 1292 ft | 105 kts | 189° |
| 2026-05-07 00:48 | 38.90830 | -77.21575 | 1296 ft | 109 kts | 171° |
| 2026-05-07 00:48 | 38.90094 | -77.21387 | 1311 ft | 105 kts | 189° |
| 2026-05-07 00:48 | 38.89405 | -77.21570 | 1307 ft | 101 kts | 208° |
| 2026-05-07 00:48 | 38.88735 | -77.21875 | 1310 ft | 102 kts | 206° |
| 2026-05-07 00:49 | 38.88031 | -77.22038 | 1308 ft | 106 kts | 191° |
| 2026-05-07 00:49 | 38.87305 | -77.22075 | 1311 ft | 100 kts | 191° |
| 2026-05-07 00:49 | 38.86649 | -77.22097 | 1303 ft | 92 kts | 191° |
| 2026-05-07 00:49 | 38.86013 | -77.22085 | 1303 ft | 93 kts | 189° |
| 2026-05-07 00:50 | 38.85377 | -77.22045 | 1306 ft | 91 kts | 186° |
| 2026-05-07 00:50 | 38.84730 | -77.21978 | 1276 ft | 94 kts | 186° |
| 2026-05-07 00:50 | 38.84082 | -77.21885 | 1272 ft | 95 kts | 183° |
| 2026-05-07 00:50 | 38.83437 | -77.21845 | 1280 ft | 90 kts | 192° |
| 2026-05-07 00:51 | 38.82795 | -77.22003 | 1274 ft | 95 kts | 205° |
| 2026-05-07 00:51 | 38.82152 | -77.22175 | 1271 ft | 98 kts | 194° |
| 2026-05-07 00:51 | 38.81476 | -77.22073 | 1275 ft | 99 kts | 173° |
| 2026-05-07 00:51 | 38.80842 | -77.21618 | 1249 ft | 118 kts | 148° |
| 2026-05-07 00:52 | 38.80222 | -77.20753 | 1275 ft | 138 kts | 130° |
| 2026-05-07 00:52 | 38.79810 | -77.19688 | 1274 ft | 133 kts | 120° |
| 2026-05-07 00:52 | 38.79460 | -77.18591 | 1272 ft | 132 kts | 121° |
| 2026-05-07 00:52 | 38.78819 | -77.17856 | 1267 ft | 122 kts | 171° |
| 2026-05-07 00:53 | 38.78052 | -77.18033 | 1270 ft | 111 kts | 223° |
| 2026-05-07 00:53 | 38.77788 | -77.18573 | 1269 ft | 110 kts | 257° |
| 2026-05-07 00:53 | 38.77980 | -77.19503 | 1273 ft | 115 kts | 306° |
| 2026-05-07 00:53 | 38.78970 | -77.20132 | 1270 ft | 124 kts | 336° |
| 2026-05-07 00:54 | 38.79781 | -77.20502 | 1270 ft | 123 kts | 335° |
| 2026-05-07 00:54 | 38.80563 | -77.20922 | 1272 ft | 122 kts | 329° |
| 2026-05-07 00:54 | 38.81315 | -77.21453 | 1277 ft | 125 kts | 328° |
| 2026-05-07 00:54 | 38.82162 | -77.21746 | 1274 ft | 129 kts | 352° |
| 2026-05-07 00:55 | 38.82753 | -77.21711 | 1273 ft | 128 kts | 360° |
| 2026-05-07 00:55 | 38.83651 | -77.21606 | 1269 ft | 131 kts | 1° |
| 2026-05-07 00:55 | 38.84558 | -77.21511 | 1273 ft | 130 kts | 358° |
| 2026-05-07 00:55 | 38.85462 | -77.21498 | 1304 ft | 130 kts | 352° |
| 2026-05-07 00:56 | 38.86363 | -77.21572 | 1303 ft | 130 kts | 350° |
| 2026-05-07 00:56 | 38.87248 | -77.21680 | 1307 ft | 126 kts | 346° |
| 2026-05-07 00:56 | 38.88100 | -77.21747 | 1320 ft | 116 kts | 360° |
| 2026-05-07 00:56 | 38.88909 | -77.21641 | 1306 ft | 118 kts | 5° |
| 2026-05-07 00:57 | 38.89707 | -77.21557 | 1302 ft | 117 kts | 359° |
| 2026-05-07 00:57 | 38.90520 | -77.21593 | 1309 ft | 117 kts | 357° |
| 2026-05-07 00:57 | 38.91322 | -77.21612 | 1311 ft | 116 kts | 358° |
| 2026-05-07 00:58 | 38.92970 | -77.21310 | 1312 ft | 122 kts | 16° |
| 2026-05-07 00:58 | 38.93741 | -77.20835 | 1312 ft | 125 kts | 28° |
| 2026-05-07 00:58 | 38.94443 | -77.20185 | 1313 ft | 125 kts | 36° |
| 2026-05-07 00:58 | 38.95129 | -77.19476 | 1312 ft | 126 kts | 32° |
| 2026-05-07 00:59 | 38.96673 | -77.17913 | 1309 ft | 126 kts | 30° |
| 2026-05-07 00:59 | 38.97425 | -77.17377 | 1316 ft | 121 kts | 21° |
| 2026-05-07 00:59 | 38.98137 | -77.16757 | 1316 ft | 127 kts | 42° |
| 2026-05-07 01:00 | 38.98779 | -77.16001 | 1306 ft | 125 kts | 32° |
| 2026-05-07 01:00 | 38.99528 | -77.15485 | 1317 ft | 119 kts | 17° |
| 2026-05-07 01:00 | 39.00329 | -77.15212 | 1330 ft | 119 kts | 9° |
| 2026-05-07 01:00 | 39.01117 | -77.14980 | 1332 ft | 117 kts | 12° |
| 2026-05-07 01:01 | 39.01721 | -77.14246 | 1353 ft | 129 kts | 70° |
| 2026-05-07 01:01 | 39.01545 | -77.13136 | 1347 ft | 133 kts | 115° |
| 2026-05-07 01:01 | 39.01289 | -77.12018 | 1328 ft | 132 kts | 94° |
| 2026-05-07 01:01 | 39.01482 | -77.10882 | 1335 ft | 131 kts | 61° |
| 2026-05-07 01:02 | 39.01468 | -77.09763 | 1324 ft | 132 kts | 121° |
| 2026-05-07 01:02 | 39.00836 | -77.08911 | 1328 ft | 133 kts | 140° |